sensor_id;sensor_type;location;lat;lon;timestamp;temperature;humidity
31133;DHT22;17779;50.942;4.026;2022-12-07T00:01:39;6.00;99.90
31133;DHT22;17779;50.942;4.026;2022-12-07T00:04:06;6.00;99.90
31133;DHT22;17779;50.942;4.026;2022-12-07T00:06:37;5.80;99.90
31133;DHT22;17779;50.942;4.026;2022-12-07T00:09:06;5.90;99.90
31133;DHT22;17779;50.942;4.026;2022-12-07T00:11:32;5.90;99.90
31133;DHT22;17779;50.942;4.026;2022-12-07T00:14:00;6.00;99.90
31133;DHT22;17779;50.942;4.026;2022-12-07T00:16:26;6.00;99.90
31133;DHT22;17779;50.942;4.026;2022-12-07T00:18:53;6.00;99.90
31133;DHT22;17779;50.942;4.026;2022-12-07T00:21:20;6.00;99.90
31133;DHT22;17779;50.942;4.026;2022-12-07T00:23:47;5.90;99.90
31133;DHT22;17779;50.942;4.026;2022-12-07T00:26:17;6.00;99.90
31133;DHT22;17779;50.942;4.026;2022-12-07T00:28:47;5.90;99.90
31133;DHT22;17779;50.942;4.026;2022-12-07T00:31:13;5.80;99.90
31133;DHT22;17779;50.942;4.026;2022-12-07T00:33:39;5.80;99.90
31133;DHT22;17779;50.942;4.026;2022-12-07T00:36:06;5.90;99.90
31133;DHT22;17779;50.942;4.026;2022-12-07T00:38:33;5.90;99.90
31133;DHT22;17779;50.942;4.026;2022-12-07T00:41:00;5.80;99.90
31133;DHT22;17779;50.942;4.026;2022-12-07T00:43:26;6.00;99.90
31133;DHT22;17779;50.942;4.026;2022-12-07T00:45:51;6.20;99.90
31133;DHT22;17779;50.942;4.026;2022-12-07T00:48:17;6.20;99.90
31133;DHT22;17779;50.942;4.026;2022-12-07T00:50:43;6.20;99.90
31133;DHT22;17779;50.942;4.026;2022-12-07T00:53:08;6.20;99.90
31133;DHT22;17779;50.942;4.026;2022-12-07T00:55:34;6.00;99.90
31133;DHT22;17779;50.942;4.026;2022-12-07T00:58:00;6.10;99.90
31133;DHT22;17779;50.942;4.026;2022-12-07T01:00:26;6.30;99.90
31133;DHT22;17779;50.942;4.026;2022-12-07T01:02:51;6.30;99.90
31133;DHT22;17779;50.942;4.026;2022-12-07T01:05:17;6.20;99.90
31133;DHT22;17779;50.942;4.026;2022-12-07T01:07:43;6.20;99.90
31133;DHT22;17779;50.942;4.026;2022-12-07T01:10:08;6.30;99.90
31133;DHT22;17779;50.942;4.026;2022-12-07T01:12:34;6.20;99.90
31133;DHT22;17779;50.942;4.026;2022-12-07T01:14:59;6.20;99.90
31133;DHT22;17779;50.942;4.026;2022-12-07T01:17:25;6.20;99.90
31133;DHT22;17779;50.942;4.026;2022-12-07T01:19:51;6.30;99.90
31133;DHT22;17779;50.942;4.026;2022-12-07T01:22:16;6.20;99.90
31133;DHT22;17779;50.942;4.026;2022-12-07T01:24:42;6.10;99.90
31133;DHT22;17779;50.942;4.026;2022-12-07T01:27:07;6.00;99.90
31133;DHT22;17779;50.942;4.026;2022-12-07T01:29:33;5.90;99.90
31133;DHT22;17779;50.942;4.026;2022-12-07T01:31:58;6.10;99.90
31133;DHT22;17779;50.942;4.026;2022-12-07T01:34:24;6.20;99.90
31133;DHT22;17779;50.942;4.026;2022-12-07T01:36:50;6.10;99.90
31133;DHT22;17779;50.942;4.026;2022-12-07T01:39:15;6.20;99.90
31133;DHT22;17779;50.942;4.026;2022-12-07T01:41:41;6.20;99.90
31133;DHT22;17779;50.942;4.026;2022-12-07T01:46:34;6.50;99.90
31133;DHT22;17779;50.942;4.026;2022-12-07T01:48:59;6.60;99.90
31133;DHT22;17779;50.942;4.026;2022-12-07T01:51:25;6.50;99.90
31133;DHT22;17779;50.942;4.026;2022-12-07T01:53:51;6.50;99.90
31133;DHT22;17779;50.942;4.026;2022-12-07T01:56:19;6.50;99.90
31133;DHT22;17779;50.942;4.026;2022-12-07T01:58:46;6.50;99.90
31133;DHT22;17779;50.942;4.026;2022-12-07T02:01:12;6.40;99.90
31133;DHT22;17779;50.942;4.026;2022-12-07T02:03:39;6.30;99.90
31133;DHT22;17779;50.942;4.026;2022-12-07T02:06:05;6.00;99.90
31133;DHT22;17779;50.942;4.026;2022-12-07T02:08:34;5.80;99.90
31133;DHT22;17779;50.942;4.026;2022-12-07T02:11:02;5.80;99.90
31133;DHT22;17779;50.942;4.026;2022-12-07T02:13:30;5.80;99.90
31133;DHT22;17779;50.942;4.026;2022-12-07T02:21:07;5.70;99.90
31133;DHT22;17779;50.942;4.026;2022-12-07T02:31:25;6.00;99.90
31133;DHT22;17779;50.942;4.026;2022-12-07T02:34:10;6.10;99.90
31133;DHT22;17779;50.942;4.026;2022-12-07T02:36:42;6.10;99.90
31133;DHT22;17779;50.942;4.026;2022-12-07T02:39:17;5.90;99.90
31133;DHT22;17779;50.942;4.026;2022-12-07T02:41:48;5.90;99.90
31133;DHT22;17779;50.942;4.026;2022-12-07T02:44:18;6.00;99.90
31133;DHT22;17779;50.942;4.026;2022-12-07T02:46:46;5.80;99.90
31133;DHT22;17779;50.942;4.026;2022-12-07T02:49:13;5.60;99.90
31133;DHT22;17779;50.942;4.026;2022-12-07T02:51:41;5.60;99.90
31133;DHT22;17779;50.942;4.026;2022-12-07T02:54:17;5.70;99.90
31133;DHT22;17779;50.942;4.026;2022-12-07T03:07:41;5.40;99.90
31133;DHT22;17779;50.942;4.026;2022-12-07T03:15:07;5.00;99.90
31133;DHT22;17779;50.942;4.026;2022-12-07T03:17:34;5.10;99.90
31133;DHT22;17779;50.942;4.026;2022-12-07T03:20:02;5.00;99.90
31133;DHT22;17779;50.942;4.026;2022-12-07T03:22:29;4.80;99.90
31133;DHT22;17779;50.942;4.026;2022-12-07T03:25:00;5.00;99.90
31133;DHT22;17779;50.942;4.026;2022-12-07T03:27:49;5.30;99.90
31133;DHT22;17779;50.942;4.026;2022-12-07T03:30:21;5.40;99.90
31133;DHT22;17779;50.942;4.026;2022-12-07T03:33:01;5.30;99.90
31133;DHT22;17779;50.942;4.026;2022-12-07T03:35:35;5.30;99.90
31133;DHT22;17779;50.942;4.026;2022-12-07T03:38:23;5.40;99.90
31133;DHT22;17779;50.942;4.026;2022-12-07T03:43:17;5.30;99.90
31133;DHT22;17779;50.942;4.026;2022-12-07T03:45:44;5.20;99.90
31133;DHT22;17779;50.942;4.026;2022-12-07T03:48:32;4.80;99.90
31133;DHT22;17779;50.942;4.026;2022-12-07T03:51:06;4.90;99.90
31133;DHT22;17779;50.942;4.026;2022-12-07T03:53:39;4.90;99.90
31133;DHT22;17779;50.942;4.026;2022-12-07T03:56:07;5.00;99.90
31133;DHT22;17779;50.942;4.026;2022-12-07T03:58:33;5.00;99.90
31133;DHT22;17779;50.942;4.026;2022-12-07T04:00:59;5.00;99.90
31133;DHT22;17779;50.942;4.026;2022-12-07T04:03:25;5.00;99.90
31133;DHT22;17779;50.942;4.026;2022-12-07T04:05:50;4.80;99.90
31133;DHT22;17779;50.942;4.026;2022-12-07T04:08:16;4.70;99.90
31133;DHT22;17779;50.942;4.026;2022-12-07T04:10:42;4.70;99.90
31133;DHT22;17779;50.942;4.026;2022-12-07T04:13:08;4.70;99.90
31133;DHT22;17779;50.942;4.026;2022-12-07T04:15:34;4.50;99.90
31133;DHT22;17779;50.942;4.026;2022-12-07T04:17:59;4.60;99.90
31133;DHT22;17779;50.942;4.026;2022-12-07T04:20:25;4.70;99.90
31133;DHT22;17779;50.942;4.026;2022-12-07T04:22:50;4.60;99.90
31133;DHT22;17779;50.942;4.026;2022-12-07T04:25:16;4.70;99.90
31133;DHT22;17779;50.942;4.026;2022-12-07T04:27:42;4.90;99.90
31133;DHT22;17779;50.942;4.026;2022-12-07T04:30:07;4.70;99.90
31133;DHT22;17779;50.942;4.026;2022-12-07T04:32:33;4.50;99.90
31133;DHT22;17779;50.942;4.026;2022-12-07T04:34:59;4.70;99.90
31133;DHT22;17779;50.942;4.026;2022-12-07T04:37:24;4.60;99.90
31133;DHT22;17779;50.942;4.026;2022-12-07T04:39:50;4.60;99.90
31133;DHT22;17779;50.942;4.026;2022-12-07T04:42:16;4.60;99.90
31133;DHT22;17779;50.942;4.026;2022-12-07T04:44:41;4.50;99.90
31133;DHT22;17779;50.942;4.026;2022-12-07T04:47:07;4.60;99.90
31133;DHT22;17779;50.942;4.026;2022-12-07T04:49:32;4.60;99.90
31133;DHT22;17779;50.942;4.026;2022-12-07T04:51:58;4.60;99.90
31133;DHT22;17779;50.942;4.026;2022-12-07T04:54:24;4.70;99.90
31133;DHT22;17779;50.942;4.026;2022-12-07T04:56:49;4.60;99.90
31133;DHT22;17779;50.942;4.026;2022-12-07T04:59:15;4.60;99.90
31133;DHT22;17779;50.942;4.026;2022-12-07T05:01:41;4.60;99.90
31133;DHT22;17779;50.942;4.026;2022-12-07T05:04:07;4.70;99.90
31133;DHT22;17779;50.942;4.026;2022-12-07T05:06:33;4.60;99.90
31133;DHT22;17779;50.942;4.026;2022-12-07T05:08:59;4.60;99.90
31133;DHT22;17779;50.942;4.026;2022-12-07T05:11:24;4.40;99.90
31133;DHT22;17779;50.942;4.026;2022-12-07T05:16:31;4.50;99.90
31133;DHT22;17779;50.942;4.026;2022-12-07T05:18:58;4.50;99.90
31133;DHT22;17779;50.942;4.026;2022-12-07T05:21:23;4.60;99.90
31133;DHT22;17779;50.942;4.026;2022-12-07T05:23:49;4.50;99.90
31133;DHT22;17779;50.942;4.026;2022-12-07T05:26:15;4.50;99.90
31133;DHT22;17779;50.942;4.026;2022-12-07T05:28:40;4.70;99.90
31133;DHT22;17779;50.942;4.026;2022-12-07T05:31:06;4.60;99.90
31133;DHT22;17779;50.942;4.026;2022-12-07T05:33:32;4.70;99.90
31133;DHT22;17779;50.942;4.026;2022-12-07T05:35:57;4.80;99.90
31133;DHT22;17779;50.942;4.026;2022-12-07T05:38:23;4.90;99.90
31133;DHT22;17779;50.942;4.026;2022-12-07T05:40:50;5.00;99.90
31133;DHT22;17779;50.942;4.026;2022-12-07T05:43:16;4.90;99.90
31133;DHT22;17779;50.942;4.026;2022-12-07T05:45:42;5.00;99.90
31133;DHT22;17779;50.942;4.026;2022-12-07T05:48:08;5.00;99.90
31133;DHT22;17779;50.942;4.026;2022-12-07T05:50:34;5.00;99.90
31133;DHT22;17779;50.942;4.026;2022-12-07T05:52:59;4.80;99.90
31133;DHT22;17779;50.942;4.026;2022-12-07T05:55:25;4.60;99.90
31133;DHT22;17779;50.942;4.026;2022-12-07T05:57:51;4.60;99.90
31133;DHT22;17779;50.942;4.026;2022-12-07T06:00:35;4.50;99.90
31133;DHT22;17779;50.942;4.026;2022-12-07T06:03:00;4.50;99.90
31133;DHT22;17779;50.942;4.026;2022-12-07T06:05:26;4.70;99.90
31133;DHT22;17779;50.942;4.026;2022-12-07T06:07:51;4.90;99.90
31133;DHT22;17779;50.942;4.026;2022-12-07T06:10:17;5.10;99.90
31133;DHT22;17779;50.942;4.026;2022-12-07T06:12:43;5.10;99.90
31133;DHT22;17779;50.942;4.026;2022-12-07T06:15:11;5.30;99.90
31133;DHT22;17779;50.942;4.026;2022-12-07T06:17:38;5.40;99.90
31133;DHT22;17779;50.942;4.026;2022-12-07T06:20:04;5.40;99.90
31133;DHT22;17779;50.942;4.026;2022-12-07T06:22:30;5.30;99.90
31133;DHT22;17779;50.942;4.026;2022-12-07T06:24:56;5.10;99.90
31133;DHT22;17779;50.942;4.026;2022-12-07T06:27:22;5.10;99.90
31133;DHT22;17779;50.942;4.026;2022-12-07T06:29:47;5.10;99.90
31133;DHT22;17779;50.942;4.026;2022-12-07T06:32:14;5.20;99.90
31133;DHT22;17779;50.942;4.026;2022-12-07T06:34:39;5.00;99.90
31133;DHT22;17779;50.942;4.026;2022-12-07T06:37:05;4.90;99.90
31133;DHT22;17779;50.942;4.026;2022-12-07T06:39:31;5.00;99.90
31133;DHT22;17779;50.942;4.026;2022-12-07T06:41:56;5.00;99.90
31133;DHT22;17779;50.942;4.026;2022-12-07T06:44:22;5.00;99.90
31133;DHT22;17779;50.942;4.026;2022-12-07T06:46:49;5.00;99.90
31133;DHT22;17779;50.942;4.026;2022-12-07T06:49:15;5.00;99.90
31133;DHT22;17779;50.942;4.026;2022-12-07T06:51:40;5.10;99.90
31133;DHT22;17779;50.942;4.026;2022-12-07T06:54:07;5.20;99.90
31133;DHT22;17779;50.942;4.026;2022-12-07T06:56:33;5.30;99.90
31133;DHT22;17779;50.942;4.026;2022-12-07T06:58:59;5.20;99.90
31133;DHT22;17779;50.942;4.026;2022-12-07T07:01:24;5.20;99.90
31133;DHT22;17779;50.942;4.026;2022-12-07T07:03:50;5.40;99.90
31133;DHT22;17779;50.942;4.026;2022-12-07T07:06:17;5.50;99.90
31133;DHT22;17779;50.942;4.026;2022-12-07T07:08:42;5.40;99.90
31133;DHT22;17779;50.942;4.026;2022-12-07T07:11:08;5.50;99.90
31133;DHT22;17779;50.942;4.026;2022-12-07T07:13:34;5.60;99.90
31133;DHT22;17779;50.942;4.026;2022-12-07T07:16:00;5.80;99.90
31133;DHT22;17779;50.942;4.026;2022-12-07T07:18:26;5.90;99.90
31133;DHT22;17779;50.942;4.026;2022-12-07T07:20:52;5.90;99.90
31133;DHT22;17779;50.942;4.026;2022-12-07T07:23:18;5.70;99.90
31133;DHT22;17779;50.942;4.026;2022-12-07T07:25:44;5.60;99.90
31133;DHT22;17779;50.942;4.026;2022-12-07T07:28:09;5.70;99.90
31133;DHT22;17779;50.942;4.026;2022-12-07T07:30:35;5.70;99.90
31133;DHT22;17779;50.942;4.026;2022-12-07T07:33:01;5.60;99.90
31133;DHT22;17779;50.942;4.026;2022-12-07T07:35:27;5.70;99.90
31133;DHT22;17779;50.942;4.026;2022-12-07T07:37:53;5.40;99.90
31133;DHT22;17779;50.942;4.026;2022-12-07T07:40:19;5.40;99.90
31133;DHT22;17779;50.942;4.026;2022-12-07T07:42:48;5.30;99.90
31133;DHT22;17779;50.942;4.026;2022-12-07T07:45:14;5.30;99.90
31133;DHT22;17779;50.942;4.026;2022-12-07T07:47:41;5.10;99.90
31133;DHT22;17779;50.942;4.026;2022-12-07T07:50:07;5.00;99.90
31133;DHT22;17779;50.942;4.026;2022-12-07T07:52:32;5.00;99.90
31133;DHT22;17779;50.942;4.026;2022-12-07T07:54:58;5.00;99.90
31133;DHT22;17779;50.942;4.026;2022-12-07T07:57:23;5.00;99.90
31133;DHT22;17779;50.942;4.026;2022-12-07T07:59:49;5.00;99.90
31133;DHT22;17779;50.942;4.026;2022-12-07T08:02:16;4.90;99.90
31133;DHT22;17779;50.942;4.026;2022-12-07T08:04:42;4.90;99.90
31133;DHT22;17779;50.942;4.026;2022-12-07T08:07:07;4.90;99.90
31133;DHT22;17779;50.942;4.026;2022-12-07T08:09:33;5.10;99.90
31133;DHT22;17779;50.942;4.026;2022-12-07T08:11:59;5.30;99.90
31133;DHT22;17779;50.942;4.026;2022-12-07T08:14:24;5.40;99.90
31133;DHT22;17779;50.942;4.026;2022-12-07T08:16:51;5.70;99.90
31133;DHT22;17779;50.942;4.026;2022-12-07T08:19:16;5.70;99.90
31133;DHT22;17779;50.942;4.026;2022-12-07T08:21:42;5.60;99.90
31133;DHT22;17779;50.942;4.026;2022-12-07T08:24:07;5.50;99.90
31133;DHT22;17779;50.942;4.026;2022-12-07T08:26:33;5.60;99.90
31133;DHT22;17779;50.942;4.026;2022-12-07T08:28:59;5.60;99.90
31133;DHT22;17779;50.942;4.026;2022-12-07T08:31:24;5.90;99.90
31133;DHT22;17779;50.942;4.026;2022-12-07T08:33:50;5.80;99.90
31133;DHT22;17779;50.942;4.026;2022-12-07T08:36:16;5.70;99.90
31133;DHT22;17779;50.942;4.026;2022-12-07T08:38:42;5.30;99.90
31133;DHT22;17779;50.942;4.026;2022-12-07T08:41:07;5.40;99.90
31133;DHT22;17779;50.942;4.026;2022-12-07T08:43:33;5.50;99.90
31133;DHT22;17779;50.942;4.026;2022-12-07T08:48:57;6.10;99.90
31133;DHT22;17779;50.942;4.026;2022-12-07T08:51:24;6.30;99.90
31133;DHT22;17779;50.942;4.026;2022-12-07T08:53:50;6.70;99.90
31133;DHT22;17779;50.942;4.026;2022-12-07T08:56:16;6.70;99.90
31133;DHT22;17779;50.942;4.026;2022-12-07T08:58:42;6.30;99.90
31133;DHT22;17779;50.942;4.026;2022-12-07T09:01:08;6.40;99.90
31133;DHT22;17779;50.942;4.026;2022-12-07T09:03:33;6.80;99.90
31133;DHT22;17779;50.942;4.026;2022-12-07T09:05:59;7.00;99.90
31133;DHT22;17779;50.942;4.026;2022-12-07T09:08:26;7.00;99.90
31133;DHT22;17779;50.942;4.026;2022-12-07T09:10:54;7.40;99.90
31133;DHT22;17779;50.942;4.026;2022-12-07T09:13:20;7.80;99.90
31133;DHT22;17779;50.942;4.026;2022-12-07T09:15:46;8.20;99.90
31133;DHT22;17779;50.942;4.026;2022-12-07T09:18:12;8.30;99.90
31133;DHT22;17779;50.942;4.026;2022-12-07T09:20:37;8.40;99.90
31133;DHT22;17779;50.942;4.026;2022-12-07T09:23:05;8.60;99.90
31133;DHT22;17779;50.942;4.026;2022-12-07T09:25:31;8.50;99.90
31133;DHT22;17779;50.942;4.026;2022-12-07T09:27:57;8.50;99.90
31133;DHT22;17779;50.942;4.026;2022-12-07T09:30:22;8.30;99.90
31133;DHT22;17779;50.942;4.026;2022-12-07T09:32:48;8.00;99.90
31133;DHT22;17779;50.942;4.026;2022-12-07T09:35:14;8.00;99.90
31133;DHT22;17779;50.942;4.026;2022-12-07T09:37:39;7.60;99.90
31133;DHT22;17779;50.942;4.026;2022-12-07T09:40:05;7.80;99.90
31133;DHT22;17779;50.942;4.026;2022-12-07T09:42:36;8.30;99.90
31133;DHT22;17779;50.942;4.026;2022-12-07T09:45:04;8.30;99.90
31133;DHT22;17779;50.942;4.026;2022-12-07T09:47:30;8.60;99.90
31133;DHT22;17779;50.942;4.026;2022-12-07T09:50:01;8.70;99.90
31133;DHT22;17779;50.942;4.026;2022-12-07T09:52:31;8.60;99.90
31133;DHT22;17779;50.942;4.026;2022-12-07T09:55:01;8.40;99.90
31133;DHT22;17779;50.942;4.026;2022-12-07T09:57:31;8.70;99.90
31133;DHT22;17779;50.942;4.026;2022-12-07T09:59:59;8.80;99.90
31133;DHT22;17779;50.942;4.026;2022-12-07T10:05:00;9.40;99.90
31133;DHT22;17779;50.942;4.026;2022-12-07T10:07:26;9.60;99.90
31133;DHT22;17779;50.942;4.026;2022-12-07T10:09:51;9.70;99.90
31133;DHT22;17779;50.942;4.026;2022-12-07T10:12:17;9.50;99.90
31133;DHT22;17779;50.942;4.026;2022-12-07T10:14:53;9.30;99.90
31133;DHT22;17779;50.942;4.026;2022-12-07T10:17:29;9.20;99.90
31133;DHT22;17779;50.942;4.026;2022-12-07T10:22:37;8.90;99.90
31133;DHT22;17779;50.942;4.026;2022-12-07T10:25:09;8.80;99.90
31133;DHT22;17779;50.942;4.026;2022-12-07T10:27:43;8.60;99.90
31133;DHT22;17779;50.942;4.026;2022-12-07T10:30:12;8.80;99.90
31133;DHT22;17779;50.942;4.026;2022-12-07T10:32:39;8.90;99.90
31133;DHT22;17779;50.942;4.026;2022-12-07T10:35:38;8.60;99.90
31133;DHT22;17779;50.942;4.026;2022-12-07T10:37:58;8.40;99.90
31133;DHT22;17779;50.942;4.026;2022-12-07T10:43:03;8.60;99.90
31133;DHT22;17779;50.942;4.026;2022-12-07T10:45:29;8.90;99.90
31133;DHT22;17779;50.942;4.026;2022-12-07T10:53:05;8.90;99.90
31133;DHT22;17779;50.942;4.026;2022-12-07T10:55:53;8.90;99.90
31133;DHT22;17779;50.942;4.026;2022-12-07T10:58:31;8.70;99.90
31133;DHT22;17779;50.942;4.026;2022-12-07T11:03:50;9.10;99.90
31133;DHT22;17779;50.942;4.026;2022-12-07T11:06:26;10.80;99.90
31133;DHT22;17779;50.942;4.026;2022-12-07T11:12:40;13.00;99.90
31133;DHT22;17779;50.942;4.026;2022-12-07T11:17:14;10.80;99.90
31133;DHT22;17779;50.942;4.026;2022-12-07T11:19:49;10.30;99.90
31133;DHT22;17779;50.942;4.026;2022-12-07T11:25:02;10.00;99.90
31133;DHT22;17779;50.942;4.026;2022-12-07T11:33:09;11.50;99.90
31133;DHT22;17779;50.942;4.026;2022-12-07T11:35:42;10.40;99.90
31133;DHT22;17779;50.942;4.026;2022-12-07T11:40:50;10.60;99.90
31133;DHT22;17779;50.942;4.026;2022-12-07T11:43:26;10.40;99.90
31133;DHT22;17779;50.942;4.026;2022-12-07T11:45:56;10.40;99.90
31133;DHT22;17779;50.942;4.026;2022-12-07T11:48:30;10.00;99.90
31133;DHT22;17779;50.942;4.026;2022-12-07T11:50:58;9.50;99.90
31133;DHT22;17779;50.942;4.026;2022-12-07T11:56:00;9.00;99.90
31133;DHT22;17779;50.942;4.026;2022-12-07T12:01:24;9.10;99.90
31133;DHT22;17779;50.942;4.026;2022-12-07T12:03:47;9.20;99.90
31133;DHT22;17779;50.942;4.026;2022-12-07T12:06:13;9.40;99.90
31133;DHT22;17779;50.942;4.026;2022-12-07T12:08:43;9.30;99.90
31133;DHT22;17779;50.942;4.026;2022-12-07T12:13:59;9.30;99.90
31133;DHT22;17779;50.942;4.026;2022-12-07T12:16:36;9.20;99.90
31133;DHT22;17779;50.942;4.026;2022-12-07T12:19:24;9.50;99.90
31133;DHT22;17779;50.942;4.026;2022-12-07T12:21:56;9.90;99.90
31133;DHT22;17779;50.942;4.026;2022-12-07T12:24:23;10.10;99.90
31133;DHT22;17779;50.942;4.026;2022-12-07T12:26:57;10.40;99.90
31133;DHT22;17779;50.942;4.026;2022-12-07T12:29:28;10.20;99.90
31133;DHT22;17779;50.942;4.026;2022-12-07T12:32:07;10.30;99.90
31133;DHT22;17779;50.942;4.026;2022-12-07T12:42:57;9.40;99.90
31133;DHT22;17779;50.942;4.026;2022-12-07T12:50:19;9.20;99.90
31133;DHT22;17779;50.942;4.026;2022-12-07T12:52:50;9.30;99.90
31133;DHT22;17779;50.942;4.026;2022-12-07T12:55:17;9.30;99.90
31133;DHT22;17779;50.942;4.026;2022-12-07T12:57:46;9.20;99.90
31133;DHT22;17779;50.942;4.026;2022-12-07T13:00:17;9.90;99.90
31133;DHT22;17779;50.942;4.026;2022-12-07T13:05:16;11.40;99.90
31133;DHT22;17779;50.942;4.026;2022-12-07T13:15:37;11.40;99.90
31133;DHT22;17779;50.942;4.026;2022-12-07T13:18:14;10.60;99.90
31133;DHT22;17779;50.942;4.026;2022-12-07T13:20:48;10.00;99.90
31133;DHT22;17779;50.942;4.026;2022-12-07T13:23:15;9.60;99.90
31133;DHT22;17779;50.942;4.026;2022-12-07T13:25:54;9.20;99.90
31133;DHT22;17779;50.942;4.026;2022-12-07T13:28:21;10.20;99.90
31133;DHT22;17779;50.942;4.026;2022-12-07T13:30:58;10.60;99.90
31133;DHT22;17779;50.942;4.026;2022-12-07T13:33:25;11.00;99.90
31133;DHT22;17779;50.942;4.026;2022-12-07T13:35:56;11.40;99.90
31133;DHT22;17779;50.942;4.026;2022-12-07T13:38:34;11.30;99.90
31133;DHT22;17779;50.942;4.026;2022-12-07T13:41:03;10.80;99.90
31133;DHT22;17779;50.942;4.026;2022-12-07T13:43:29;10.70;99.90
31133;DHT22;17779;50.942;4.026;2022-12-07T13:45:58;10.40;99.90
31133;DHT22;17779;50.942;4.026;2022-12-07T13:51:00;10.00;99.90
31133;DHT22;17779;50.942;4.026;2022-12-07T13:53:27;10.30;99.90
31133;DHT22;17779;50.942;4.026;2022-12-07T13:55:58;10.30;99.90
31133;DHT22;17779;50.942;4.026;2022-12-07T13:58:24;10.00;99.90
31133;DHT22;17779;50.942;4.026;2022-12-07T14:00:50;9.50;99.90
31133;DHT22;17779;50.942;4.026;2022-12-07T14:05:42;8.80;99.90
31133;DHT22;17779;50.942;4.026;2022-12-07T14:10:39;8.70;99.90
31133;DHT22;17779;50.942;4.026;2022-12-07T14:15:49;8.50;99.90
31133;DHT22;17779;50.942;4.026;2022-12-07T14:18:26;8.30;99.90
31133;DHT22;17779;50.942;4.026;2022-12-07T14:21:05;8.10;99.90
31133;DHT22;17779;50.942;4.026;2022-12-07T14:23:31;7.90;99.90
31133;DHT22;17779;50.942;4.026;2022-12-07T14:26:13;8.30;99.90
31133;DHT22;17779;50.942;4.026;2022-12-07T14:28:39;8.40;99.90
31133;DHT22;17779;50.942;4.026;2022-12-07T14:31:10;8.50;99.90
31133;DHT22;17779;50.942;4.026;2022-12-07T14:33:36;8.60;99.90
31133;DHT22;17779;50.942;4.026;2022-12-07T14:36:02;8.90;99.90
31133;DHT22;17779;50.942;4.026;2022-12-07T14:38:28;8.90;99.90
31133;DHT22;17779;50.942;4.026;2022-12-07T14:40:54;8.90;99.90
31133;DHT22;17779;50.942;4.026;2022-12-07T14:43:40;9.00;99.90
31133;DHT22;17779;50.942;4.026;2022-12-07T14:46:06;8.90;99.90
31133;DHT22;17779;50.942;4.026;2022-12-07T14:48:32;8.70;99.90
31133;DHT22;17779;50.942;4.026;2022-12-07T14:50:57;8.30;99.90
31133;DHT22;17779;50.942;4.026;2022-12-07T14:53:25;8.10;99.90
31133;DHT22;17779;50.942;4.026;2022-12-07T14:55:53;7.80;99.90
31133;DHT22;17779;50.942;4.026;2022-12-07T14:58:19;7.80;99.90
31133;DHT22;17779;50.942;4.026;2022-12-07T15:00:47;7.60;99.90
31133;DHT22;17779;50.942;4.026;2022-12-07T15:03:13;7.40;99.90
31133;DHT22;17779;50.942;4.026;2022-12-07T15:05:39;7.20;99.90
31133;DHT22;17779;50.942;4.026;2022-12-07T15:08:05;7.10;99.90
31133;DHT22;17779;50.942;4.026;2022-12-07T15:10:32;7.00;99.90
31133;DHT22;17779;50.942;4.026;2022-12-07T15:12:58;7.00;99.90
31133;DHT22;17779;50.942;4.026;2022-12-07T15:15:43;6.90;99.90
31133;DHT22;17779;50.942;4.026;2022-12-07T15:18:08;6.80;99.90
31133;DHT22;17779;50.942;4.026;2022-12-07T15:20:35;6.90;99.90
31133;DHT22;17779;50.942;4.026;2022-12-07T15:23:01;7.10;99.90
31133;DHT22;17779;50.942;4.026;2022-12-07T15:25:26;7.20;99.90
31133;DHT22;17779;50.942;4.026;2022-12-07T15:27:52;7.30;99.90
31133;DHT22;17779;50.942;4.026;2022-12-07T15:30:17;7.40;99.90
31133;DHT22;17779;50.942;4.026;2022-12-07T15:32:43;7.50;99.90
31133;DHT22;17779;50.942;4.026;2022-12-07T15:35:09;7.40;99.90
31133;DHT22;17779;50.942;4.026;2022-12-07T15:37:35;7.40;99.90
31133;DHT22;17779;50.942;4.026;2022-12-07T15:40:01;7.50;99.90
31133;DHT22;17779;50.942;4.026;2022-12-07T15:42:26;7.50;99.90
31133;DHT22;17779;50.942;4.026;2022-12-07T15:44:52;7.60;99.90
31133;DHT22;17779;50.942;4.026;2022-12-07T15:47:34;7.60;99.90
31133;DHT22;17779;50.942;4.026;2022-12-07T15:50:02;7.70;99.90
31133;DHT22;17779;50.942;4.026;2022-12-07T15:52:29;7.70;99.90
31133;DHT22;17779;50.942;4.026;2022-12-07T15:54:55;7.60;99.90
31133;DHT22;17779;50.942;4.026;2022-12-07T15:57:21;7.40;99.90
31133;DHT22;17779;50.942;4.026;2022-12-07T15:59:46;7.40;99.90
31133;DHT22;17779;50.942;4.026;2022-12-07T16:02:12;7.30;99.90
31133;DHT22;17779;50.942;4.026;2022-12-07T16:04:38;7.00;99.90
31133;DHT22;17779;50.942;4.026;2022-12-07T16:07:03;6.70;99.90
31133;DHT22;17779;50.942;4.026;2022-12-07T16:09:29;6.60;99.90
31133;DHT22;17779;50.942;4.026;2022-12-07T16:11:54;6.50;99.90
31133;DHT22;17779;50.942;4.026;2022-12-07T16:14:20;6.40;99.90
31133;DHT22;17779;50.942;4.026;2022-12-07T16:16:46;6.40;99.90
31133;DHT22;17779;50.942;4.026;2022-12-07T16:19:12;6.40;99.90
31133;DHT22;17779;50.942;4.026;2022-12-07T16:21:38;6.30;99.90
31133;DHT22;17779;50.942;4.026;2022-12-07T16:24:04;6.40;99.90
31133;DHT22;17779;50.942;4.026;2022-12-07T16:26:30;6.50;99.90
31133;DHT22;17779;50.942;4.026;2022-12-07T16:28:56;6.50;99.90
31133;DHT22;17779;50.942;4.026;2022-12-07T16:31:23;6.40;99.90
31133;DHT22;17779;50.942;4.026;2022-12-07T16:33:50;6.60;99.90
31133;DHT22;17779;50.942;4.026;2022-12-07T16:36:17;6.50;99.90
31133;DHT22;17779;50.942;4.026;2022-12-07T16:38:43;6.60;99.90
31133;DHT22;17779;50.942;4.026;2022-12-07T16:41:09;6.60;99.90
31133;DHT22;17779;50.942;4.026;2022-12-07T16:43:35;6.60;99.90
31133;DHT22;17779;50.942;4.026;2022-12-07T16:46:02;6.80;99.90
31133;DHT22;17779;50.942;4.026;2022-12-07T16:48:28;6.60;99.90
31133;DHT22;17779;50.942;4.026;2022-12-07T16:50:54;6.50;99.90
31133;DHT22;17779;50.942;4.026;2022-12-07T16:53:20;6.30;99.90
31133;DHT22;17779;50.942;4.026;2022-12-07T16:55:46;6.20;99.90
31133;DHT22;17779;50.942;4.026;2022-12-07T16:58:13;6.10;99.90
31133;DHT22;17779;50.942;4.026;2022-12-07T17:00:39;6.30;99.90
31133;DHT22;17779;50.942;4.026;2022-12-07T17:03:04;6.50;99.90
31133;DHT22;17779;50.942;4.026;2022-12-07T17:05:30;6.70;99.90
31133;DHT22;17779;50.942;4.026;2022-12-07T17:07:56;6.80;99.90
31133;DHT22;17779;50.942;4.026;2022-12-07T17:10:22;6.60;99.90
31133;DHT22;17779;50.942;4.026;2022-12-07T17:12:48;6.60;99.90
31133;DHT22;17779;50.942;4.026;2022-12-07T17:15:14;6.70;99.90
31133;DHT22;17779;50.942;4.026;2022-12-07T17:17:52;6.80;99.90
31133;DHT22;17779;50.942;4.026;2022-12-07T17:20:18;6.90;99.90
31133;DHT22;17779;50.942;4.026;2022-12-07T17:22:45;7.00;99.90
31133;DHT22;17779;50.942;4.026;2022-12-07T17:25:10;7.10;99.90
31133;DHT22;17779;50.942;4.026;2022-12-07T17:27:36;7.20;99.90
31133;DHT22;17779;50.942;4.026;2022-12-07T17:30:03;7.00;99.90
31133;DHT22;17779;50.942;4.026;2022-12-07T17:32:29;7.10;99.90
31133;DHT22;17779;50.942;4.026;2022-12-07T17:34:54;6.90;99.90
31133;DHT22;17779;50.942;4.026;2022-12-07T17:37:20;6.40;99.90
31133;DHT22;17779;50.942;4.026;2022-12-07T17:39:46;6.10;99.90
31133;DHT22;17779;50.942;4.026;2022-12-07T17:42:12;6.20;99.90